Hovedside
METAR-TAF:

METAR-TAF

Lufthavner :

Aarhus lufthavn

Aarhus, Danmark

breddegrad: 56-18N, lengdegrad: 010-37E, høyde over havet: 23 m

Gjeldene værobservasjon

Denne rapporten ble laget for 21 minutter siden, klokken 10:20 UTC
Vind 13 kt fra Vest-nordvest
Temperatur 17°C
Luftfuktighet 59%
Trykk 1013 hPa
Sikt 10 km eller mer

METAR: EKAH 191020Z AUTO 29013KT 9999 BKN031/// 17/09 Q1013

Tid: 12:41 (10:41 UTC)

Varsel

Denne rapporten ble laget for 5 timer og 38 minutter siden, klokken 05:03 UTC
Varsel gyldig fra 19. klokken 06 UTC til 20. klokken 06 UTC
Vind 8 kt fra Vest
Sikt 10 km eller mer
Få skyer i en høyde av 2000 ft

TAF: EKAH 190503Z 1906/2006 28008KT 9999 FEW020

Værobservasjoner og værvarsel for over 4000 flyplasser (METAR- og TAF-rapporter).

Tilgjengelige stasjoner er representert av de røde og gule prikkene på kartet.

Hold musepekeren over prikken for å se navnet på stasjonen.

Klikk så for å se værobservasjoner og -varsler.

For å forandre kartet kan du klikke på den grønne knappen med svart kryss for å zoome inn, på den grønne knappen med strek for å zoome ut, eller på de grønne pilene for å se tilstøtende kart.


METAR-TAF: